Time;durP1;ratioP1;P1;durP2;ratioP2;P2;SDS_P1;SDS_P2;PMS_P1;PMS_P2;Temp;Humidity;BMP_temperature;BMP_pressure;BME280_temperature;BME280_humidity;BME280_pressure;Samples;Min_cycle;Max_cycle;Signal;HPM_P1;HPM_P2
2022/05/02 00:00:16;;;;;;;16.80;15.10;;;10.50;99.90;;;10.28;100.00;100698.88;4990372;28;20069;-80
2022/05/02 00:02:43;;;;;;;17.40;15.70;;;10.50;99.90;;;10.21;100.00;100692.88;4989636;28;20038;-79
2022/05/02 00:05:11;;;;;;;15.82;14.20;;;11.10;99.90;;;10.18;100.00;100698.19;4989625;28;20069;-80
2022/05/02 00:07:38;;;;;;;16.83;15.13;;;10.60;99.90;;;10.06;100.00;100699.25;4989312;28;20050;-80
2022/05/02 00:10:06;;;;;;;16.90;15.30;;;10.40;99.90;;;10.11;100.00;100699.16;4990647;28;20066;-80
2022/05/02 00:12:34;;;;;;;17.50;15.70;;;10.40;99.90;;;10.02;100.00;100693.19;5006870;28;20050;-80
2022/05/02 00:15:02;;;;;;;19.92;16.40;;;10.40;99.90;;;10.00;100.00;100691.47;4990370;28;20121;-80
2022/05/02 00:20:16;;;;;;;15.90;14.20;;;10.50;99.90;;;9.93;100.00;100699.47;4988852;28;20495;-80
2022/05/02 00:22:44;;;;;;;16.40;14.25;;;10.30;99.90;;;9.88;100.00;100687.28;4989811;28;20142;-81
2022/05/02 00:25:12;;;;;;;17.75;15.88;;;10.20;99.90;;;9.69;100.00;100697.19;4957152;28;20050;-80
2022/05/02 00:27:40;;;;;;;16.30;14.70;;;10.10;99.90;;;9.67;100.00;100694.59;4989816;28;20046;-81
2022/05/02 00:30:11;;;;;;;16.17;14.55;;;10.10;99.90;;;9.57;100.00;100695.63;4973120;28;20862;-79
2022/05/02 00:32:40;;;;;;;17.77;14.55;;;10.00;99.90;;;9.56;100.00;100697.38;4990006;28;20062;-80
2022/05/02 00:35:09;;;;;;;16.25;14.55;;;10.00;99.90;;;9.39;100.00;100691.50;4989026;28;20054;-81
2022/05/02 00:37:41;;;;;;;16.48;14.77;;;9.90;99.90;;;9.52;100.00;100687.81;4974220;28;20396;-78
2022/05/02 00:40:12;;;;;;;18.75;15.57;;;9.80;99.90;;;9.50;100.00;100695.69;5004966;28;20062;-80
2022/05/02 00:42:41;;;;;;;17.33;15.45;;;9.80;99.90;;;9.42;100.00;100696.69;5005629;28;20053;-82
2022/05/02 00:45:10;;;;;;;18.30;16.23;;;10.20;99.90;;;9.27;100.00;100685.53;4988925;28;20044;-77
2022/05/02 00:47:37;;;;;;;19.08;16.40;;;9.80;99.90;;;9.31;100.00;100687.25;5005014;28;20751;-81
2022/05/02 00:50:07;;;;;;;16.77;15.07;;;9.70;99.90;;;9.32;100.00;100681.09;4972799;28;20064;-79
2022/05/02 00:52:36;;;;;;;17.95;16.08;;;9.70;99.90;;;9.42;100.00;100676.56;4989109;28;20054;-79
2022/05/02 00:55:05;;;;;;;18.75;16.85;;;9.70;99.90;;;9.51;100.00;100686.06;4988596;28;20061;-81
2022/05/02 00:57:33;;;;;;;18.27;16.23;;;9.70;99.90;;;9.37;100.00;100675.78;4973212;28;20042;-80
2022/05/02 01:00:01;;;;;;;17.85;15.02;;;9.70;99.90;;;9.21;100.00;100680.38;4988441;28;20047;-80
2022/05/02 01:02:28;;;;;;;17.92;16.10;;;11.60;99.90;;;9.31;100.00;100678.47;4989211;28;20110;-80
2022/05/02 01:04:56;;;;;;;18.48;16.23;;;9.70;99.90;;;9.35;100.00;100682.78;4988792;28;20129;-81
2022/05/02 01:07:23;;;;;;;18.08;16.02;;;9.60;99.90;;;9.27;100.00;100679.41;4989130;28;20046;-80
2022/05/02 01:09:52;;;;;;;18.27;16.23;;;9.70;99.90;;;9.19;100.00;100674.25;5005183;28;20042;-80
2022/05/02 01:12:25;;;;;;;20.33;16.38;;;10.30;99.90;;;9.11;100.00;100684.88;5005315;28;20046;-79
2022/05/02 01:14:57;;;;;;;19.30;17.30;;;10.70;99.90;;;9.06;100.00;100684.06;4989239;28;20609;-80
2022/05/02 01:17:24;;;;;;;17.05;15.25;;;9.50;99.90;;;9.07;100.00;100678.78;4990298;28;20058;-81
2022/05/02 01:19:51;;;;;;;18.23;16.15;;;9.40;99.90;;;9.07;100.00;100678.78;4988415;28;20038;-79
2022/05/02 01:22:18;;;;;;;18.20;15.68;;;10.50;99.90;;;8.93;100.00;100685.97;4988589;28;20050;-81
2022/05/02 01:24:47;;;;;;;20.33;15.77;;;9.80;99.90;;;8.94;100.00;100679.81;4988943;28;20051;-79
2022/05/02 01:27:16;;;;;;;18.65;15.52;;;9.30;99.90;;;8.91;100.00;100679.88;4988838;28;20117;-78
2022/05/02 01:29:45;;;;;;;16.83;14.82;;;9.80;99.90;;;8.80;100.00;100672.97;4987599;28;20052;-81
2022/05/02 01:32:15;;;;;;;16.38;14.77;;;9.30;99.90;;;8.78;100.00;100669.50;4973149;28;20050;-80
2022/05/02 01:34:42;;;;;;;17.10;15.40;;;9.20;99.90;;;8.59;100.00;100666.25;4988351;28;20062;-80
2022/05/02 01:37:14;;;;;;;15.98;14.38;;;9.20;99.90;;;8.73;100.00;100665.19;4972546;28;20049;-80
2022/05/02 01:39:42;;;;;;;;;;;9.40;99.90;;;8.75;100.00;100666.06;5004171;28;20062;-79
2022/05/02 01:42:11;;;;;;;16.20;14.50;;;9.10;99.90;;;8.78;100.00;100666.88;4989057;28;19948;-79
2022/05/02 01:44:39;;;;;;;19.05;15.38;;;9.30;99.90;;;8.69;100.00;100660.88;5004346;28;20042;-81
2022/05/02 01:47:09;;;;;;;18.33;16.33;;;9.30;99.90;;;8.66;100.00;100659.16;5003731;28;20088;-79
2022/05/02 01:49:36;;;;;;;18.85;16.85;;;10.70;99.90;;;8.65;100.00;100665.28;5002531;28;20675;-79
2022/05/02 01:52:04;;;;;;;18.08;16.27;;;9.00;99.90;;;8.61;100.00;100664.47;5003820;28;20447;-79
2022/05/02 01:54:31;;;;;;;19.55;17.05;;;8.90;99.90;;;8.44;100.00;100664.59;4986687;28;20046;-80
2022/05/02 01:56:58;;;;;;;19.50;16.83;;;8.90;99.90;;;8.42;100.00;100661.13;4988788;28;20050;-79
2022/05/02 01:59:25;;;;;;;19.38;17.27;;;8.90;99.90;;;8.37;100.00;100658.56;4986617;28;20495;-80
2022/05/02 02:01:52;;;;;;;18.27;16.38;;;8.80;99.90;;;8.39;100.00;100661.19;4994516;28;20485;-80
2022/05/02 02:07:05;;;;;;;18.08;15.20;;;8.80;99.90;;;8.33;100.00;100649.00;4977129;28;20046;-80
2022/05/02 02:09:32;;;;;;;18.50;15.68;;;8.80;99.90;;;8.34;100.00;100655.09;5006338;28;20069;-79
2022/05/02 02:11:59;;;;;;;17.92;16.13;;;8.90;99.90;;;8.35;100.00;100659.44;5007761;28;20054;-79
2022/05/02 02:14:27;;;;;;;17.70;15.98;;;8.70;99.90;;;8.29;100.00;100652.53;4990513;28;20046;-79
2022/05/02 02:16:54;;;;;;;18.27;15.55;;;8.60;99.90;;;8.28;100.00;100656.03;4990984;28;20042;-80
2022/05/02 02:19:21;;;;;;;16.88;14.50;;;8.70;99.90;;;8.28;100.00;100656.03;5009899;28;20681;-79
2022/05/02 02:21:48;;;;;;;16.27;14.57;;;8.70;99.90;;;8.09;100.00;100650.94;5011317;28;20442;-77
2022/05/02 02:24:15;;;;;;;17.75;16.08;;;8.60;99.90;;;8.05;100.00;100648.41;5006571;28;20042;-79
2022/05/02 02:26:43;;;;;;;18.05;16.17;;;8.60;99.90;;;8.07;100.00;100650.09;4976346;28;20053;-77
2022/05/02 02:29:10;;;;;;;18.00;16.10;;;8.60;99.90;;;8.01;100.00;100649.28;4991566;28;20082;-78
2022/05/02 02:31:37;;;;;;;20.38;15.77;;;9.00;99.90;;;8.07;100.00;100642.25;4959030;28;20055;-77
2022/05/02 02:34:04;;;;;;;18.13;15.38;;;8.50;99.90;;;8.10;100.00;100646.59;4974598;28;20043;-77
2022/05/02 02:36:31;;;;;;;17.13;15.32;;;8.60;99.90;;;8.06;100.00;100644.91;5008965;28;20050;-77
2022/05/02 02:38:58;;;;;;;18.48;15.40;;;8.40;99.90;;;8.07;100.00;100646.63;5008481;28;20042;-77
2022/05/02 02:41:25;;;;;;;17.00;14.80;;;8.50;99.90;;;7.96;100.00;100651.97;5006265;28;20047;-78
2022/05/02 02:43:53;;;;;;;16.63;14.93;;;8.40;99.90;;;7.89;100.00;100645.03;4976374;28;20519;-77
2022/05/02 02:46:20;;;;;;;17.05;15.40;;;8.90;99.90;;;7.99;100.00;100644.06;4991579;28;20330;-78
2022/05/02 02:48:48;;;;;;;16.02;14.35;;;9.00;99.90;;;7.88;100.00;100638.94;4991627;28;20067;-77
2022/05/02 02:51:14;;;;;;;16.60;14.82;;;8.30;99.90;;;7.93;100.00;100639.75;4992350;28;20093;-79
2022/05/02 02:53:41;;;;;;;15.15;13.23;;;9.30;99.90;;;8.03;100.00;100637.91;5007087;28;20050;-77
2022/05/02 02:56:08;;;;;;;16.83;14.98;;;8.70;99.90;;;8.14;100.00;100636.97;4975386;28;20049;-79
2022/05/02 02:58:35;;;;;;;15.18;13.52;;;8.30;99.90;;;8.04;100.00;100625.66;4976099;28;20043;-76
2022/05/02 03:01:03;;;;;;;15.80;14.27;;;8.40;99.90;;;7.84;100.00;100621.47;4975081;28;20046;-77
2022/05/02 03:03:30;;;;;;;16.80;14.15;;;9.70;99.90;;;7.84;100.00;100621.47;5007315;28;20058;-78
2022/05/02 03:06:04;;;;;;;15.15;13.65;;;9.20;99.90;;;7.86;100.00;100613.63;5009102;28;20053;-77
2022/05/02 03:08:36;;;;;;;16.00;14.38;;;8.70;99.90;;;7.73;100.00;100618.97;4991011;28;20047;-78
2022/05/02 03:11:03;;;;;;;15.30;13.80;;;8.20;99.90;;;7.81;100.00;100616.28;4993626;28;20170;-79
2022/05/02 03:13:30;;;;;;;13.95;12.52;;;9.70;99.90;;;7.82;100.00;100615.41;4994974;28;20042;-78
2022/05/02 03:15:57;;;;;;;15.38;13.70;;;8.20;99.90;;;7.70;100.00;100620.72;4978898;28;20042;-79
2022/05/02 03:18:25;;;;;;;14.77;13.27;;;8.10;99.90;;;7.56;100.00;100624.31;4994201;28;20065;-78
2022/05/02 03:20:52;;;;;;;13.82;12.45;;;8.10;99.90;;;7.45;100.00;100626.16;4994390;28;20432;-78
2022/05/02 03:23:20;;;;;;;13.70;12.32;;;8.10;99.90;;;7.49;100.00;100620.03;4995055;28;20097;-78
2022/05/02 03:25:47;;;;;;;14.98;13.10;;;8.00;99.90;;;7.36;100.00;100630.56;4994565;28;20042;-77
2022/05/02 03:28:15;;;;;;;13.80;12.40;;;9.50;99.90;;;7.25;100.00;100629.75;4976894;28;20661;-78
2022/05/02 03:30:42;;;;;;;14.60;13.07;;;7.90;99.90;;;7.31;100.00;100626.25;4975389;28;20054;-78
2022/05/02 03:33:09;;;;;;;15.35;13.75;;;7.80;99.90;;;7.31;100.00;100623.63;4991562;28;20061;-79
2022/05/02 03:35:36;;;;;;;16.40;13.82;;;8.90;99.90;;;7.24;100.00;100622.78;4991233;28;20042;-77
2022/05/02 03:38:03;;;;;;;13.13;11.82;;;8.50;99.90;;;7.27;100.00;100628.03;4991326;28;20490;-78
2022/05/02 03:40:30;;;;;;;14.05;12.57;;;7.70;99.90;;;7.19;100.00;100622.84;5009106;28;20062;-77
2022/05/02 03:42:57;;;;;;;15.00;12.07;;;9.20;99.90;;;7.22;100.00;100617.59;4997245;28;20046;-77
2022/05/02 03:45:25;;;;;;;14.10;12.70;;;7.70;99.90;;;7.22;100.00;100621.94;5012869;28;20315;-78
2022/05/02 03:47:52;;;;;;;14.95;12.00;;;7.70;99.90;;;7.19;100.00;100612.38;5011736;28;20126;-80
2022/05/02 03:50:19;;;;;;;14.57;12.57;;;8.70;99.90;;;7.11;100.00;100626.38;4978256;28;20046;-79
2022/05/02 03:52:53;;;;;;;17.58;13.18;;;7.60;99.90;;;7.11;100.00;100611.53;5010717;28;20042;-80
2022/05/02 03:55:20;;;;;;;16.50;14.85;;;7.60;99.90;;;6.99;100.00;100615.09;4993759;28;20058;-79
2022/05/02 03:57:47;;;;;;;15.32;13.73;;;7.60;99.90;;;7.14;100.00;100618.50;5010254;28;20047;-80
2022/05/02 04:00:14;;;;;;;17.45;15.40;;;7.60;99.90;;;7.20;100.00;100624.56;5008642;28;20053;-78
2022/05/02 04:02:42;;;;;;;20.50;15.05;;;7.60;99.90;;;7.18;100.00;100622.84;5011339;28;20487;-79
2022/05/02 04:05:09;;;;;;;17.30;15.57;;;7.60;99.90;;;7.24;100.00;100621.06;4979017;28;20058;-77
2022/05/02 04:07:37;;;;;;;19.63;17.52;;;7.60;99.90;;;7.26;100.00;100612.31;4995755;28;20072;-76
2022/05/02 04:10:05;;;;;;;19.25;16.83;;;7.60;99.90;;;7.29;100.00;100618.41;5010714;28;20053;-79
2022/05/02 04:12:39;;;;;;;18.65;16.63;;;7.70;99.90;;;7.33;100.00;100617.50;5010883;28;20101;-79
2022/05/02 04:15:11;;;;;;;19.65;14.80;;;8.30;99.90;;;7.26;100.00;100623.69;5009500;28;20054;-79
2022/05/02 04:17:39;;;;;;;16.20;14.50;;;7.70;99.90;;;7.28;100.00;100616.69;4993299;28;20073;-78
2022/05/02 04:20:08;;;;;;;15.82;14.23;;;7.60;99.90;;;7.22;100.00;100614.09;4976065;28;20071;-79
2022/05/02 04:22:37;;;;;;;21.07;15.87;;;7.70;99.90;;;7.03;100.00;100619.44;4977626;28;20046;-80
2022/05/02 04:25:05;;;;;;;17.17;15.25;;;9.50;99.90;;;7.03;100.00;100619.44;4977217;28;20065;-78
2022/05/02 04:27:32;;;;;;;17.42;15.60;;;7.60;99.90;;;7.08;100.00;100620.25;4992689;28;20085;-78
2022/05/02 04:30:00;;;;;;;17.02;15.30;;;7.50;99.90;;;7.07;100.00;100628.13;4992754;28;20046;-79
2022/05/02 04:32:27;;;;;;;15.80;13.93;;;8.10;99.90;;;7.17;100.00;100621.09;4990408;28;20046;-78
2022/05/02 04:35:06;;;;;;;16.42;14.65;;;7.50;99.90;;;7.23;100.00;100618.44;4974636;28;20046;-78
2022/05/02 04:37:36;;;;;;;18.42;16.52;;;7.50;99.90;;;7.23;100.00;100624.56;4989265;28;20487;-78
2022/05/02 04:40:04;;;;;;;18.52;16.60;;;9.80;99.90;;;7.23;100.00;100624.56;4990277;28;20053;-79
2022/05/02 04:42:32;;;;;;;18.05;15.15;;;7.70;99.90;;;7.32;100.00;100627.97;5005475;28;20045;-78
2022/05/02 04:44:59;;;;;;;17.00;15.30;;;7.70;99.90;;;7.40;100.00;100625.31;5004893;28;20125;-79
2022/05/02 04:47:26;;;;;;;18.15;16.30;;;9.60;99.90;;;7.49;100.00;100630.50;4990055;28;20045;-78
2022/05/02 04:49:56;;;;;;;19.27;17.13;;;7.70;99.90;;;7.50;100.00;100630.50;4984108;28;20046;-77
2022/05/02 04:52:23;;;;;;;25.63;17.25;;;8.60;99.90;;;7.46;100.00;100630.53;4953476;28;20061;-78
2022/05/02 04:54:50;;;;;;;21.10;17.40;;;7.80;99.90;;;7.42;100.00;100628.81;4970755;28;20050;-78
2022/05/02 04:57:17;;;;;;;19.75;16.38;;;7.90;99.90;;;7.34;100.00;100634.94;4953614;28;20047;-78
2022/05/02 04:59:44;;;;;;;20.10;16.90;;;7.90;99.90;;;7.36;100.00;100617.47;4981412;28;20610;-77
2022/05/02 05:02:12;;;;;;;18.67;16.83;;;7.90;99.90;;;7.58;100.00;100626.94;4989310;28;20050;-78
2022/05/02 05:04:39;;;;;;;19.65;17.60;;;8.60;99.90;;;7.71;100.00;100635.56;4972123;28;20052;-78
2022/05/02 05:07:06;;;;;;;21.13;17.65;;;7.90;99.90;;;7.78;100.00;100642.50;4988612;28;20047;-79
2022/05/02 05:09:33;;;;;;;20.13;17.95;;;8.00;99.90;;;7.70;100.00;100639.94;5003176;28;20161;-81
2022/05/02 05:12:19;;;;;;;32.28;18.63;;;8.10;99.90;;;7.93;100.00;100647.63;5004025;28;20503;-79
2022/05/02 05:18:34;;;;;;;18.50;16.05;;;8.20;99.90;;;8.02;100.00;100635.28;5008017;28;20053;-76
2022/05/02 05:21:15;;;;;;;17.60;15.13;;;8.30;99.90;;;8.05;100.00;100640.53;4999851;28;20558;-78
2022/05/02 05:24:22;;;;;;;16.30;14.45;;;6.50;99.90;;;8.01;100.00;100637.06;4990717;28;20038;-75
2022/05/02 05:27:12;;;;;;;19.77;16.48;;;8.40;99.90;;;8.23;100.00;100634.22;4969964;28;20054;-75
2022/05/02 05:30:08;;;;;;;21.30;16.55;;;9.10;99.90;;;8.33;100.00;100638.50;5000546;28;20058;-76
2022/05/02 05:32:52;;;;;;;18.85;16.85;;;8.50;99.90;;;8.41;100.00;100646.28;4984542;28;20056;-75
2022/05/02 05:35:52;;;;;;;18.90;16.90;;;8.60;99.90;;;8.35;100.00;100641.09;4987685;28;20041;-77
2022/05/02 05:38:45;;;;;;;;;;;8.60;99.90;;;8.47;100.00;100635.72;4971303;28;20065;-75
2022/05/02 05:41:25;;;;;;;19.48;15.63;;;8.60;99.90;;;8.55;100.00;100642.69;4998340;28;19926;-76
2022/05/02 05:44:23;;;;;;;19.35;15.80;;;8.70;99.90;;;8.62;100.00;100632.09;4992377;28;20052;-77
2022/05/02 05:47:08;;;;;;;17.98;16.02;;;8.80;99.90;;;8.75;100.00;100639.84;4992908;28;20046;-78
2022/05/02 05:50:14;;;;;;;18.13;15.45;;;8.90;99.90;;;8.89;100.00;100635.25;4976374;28;20047;-77
2022/05/02 05:53:03;;;;;;;16.20;14.45;;;10.40;99.90;;;9.25;100.00;100640.03;4975960;28;20058;-77
2022/05/02 05:56:13;;;;;;;19.15;14.65;;;9.50;99.90;;;9.34;100.00;100637.28;5007786;28;20054;-77
2022/05/02 05:59:05;;;;;;;16.73;14.77;;;10.20;99.90;;;9.44;100.00;100634.50;5001408;28;20066;-80
2022/05/02 06:02:03;;;;;;;16.63;14.13;;;9.60;99.90;;;9.58;100.00;100634.31;4980154;28;20039;-80
2022/05/02 06:04:35;;;;;;;19.67;14.27;;;9.70;99.90;;;9.62;100.00;100636.88;4982214;28;20282;-80
2022/05/02 06:07:03;;;;;;;16.02;13.10;;;9.90;99.90;;;9.74;100.00;100632.28;4988772;28;20677;-80
2022/05/02 06:09:31;;;;;;;19.00;13.77;;;9.90;99.90;;;9.90;100.00;100630.31;4977099;28;20615;-78
2022/05/02 06:11:59;;;;;;;14.55;13.00;;;11.20;99.90;;;9.96;100.00;100634.59;4993012;28;20094;-76
2022/05/02 06:18:27;;;;;;;17.48;14.57;;;10.00;99.90;;;10.06;100.00;100631.75;5004894;28;20047;-78
2022/05/02 06:20:20;;;;;;;18.55;15.02;;;10.40;99.90;;;10.27;100.00;100634.88;4989181;28;20126;-78
2022/05/02 06:22:48;;;;;;;18.38;14.25;;;10.30;99.90;;;10.29;100.00;100626.97;4997696;28;20050;-77
2022/05/02 06:25:17;;;;;;;18.83;15.65;;;10.90;99.90;;;10.41;100.00;100636.44;5011086;28;20054;-78
2022/05/02 06:27:45;;;;;;;17.87;15.73;;;10.50;99.90;;;10.53;100.00;100640.59;5008586;28;20117;-78
2022/05/02 06:30:14;;;;;;;18.77;15.63;;;10.60;99.90;;;10.58;100.00;100650.13;5008566;28;20320;-77
2022/05/02 06:32:44;;;;;;;17.35;15.30;;;10.60;99.90;;;10.59;100.00;100640.47;5007312;28;20070;-77
2022/05/02 06:35:13;;;;;;;20.17;15.38;;;10.70;99.90;;;10.67;100.00;100645.59;4977993;28;20078;-76
2022/05/02 06:38:07;;;;;;;17.35;14.80;;;11.00;99.90;;;10.73;100.00;100648.97;4977562;28;20129;-78
2022/05/02 06:41:06;;;;;;;17.83;15.48;;;10.80;99.90;;;10.78;100.00;100649.72;5008975;28;20046;-77
2022/05/02 06:44:08;;;;;;;17.52;15.35;;;11.70;99.90;;;10.88;100.00;100644.28;5006887;28;20153;-78
2022/05/02 06:46:54;;;;;;;15.35;13.85;;;10.90;99.90;;;10.94;100.00;100646.78;4987265;28;20062;-77
2022/05/02 06:49:27;;;;;;;17.02;15.20;;;11.00;99.90;;;11.00;100.00;100644.00;5002590;28;20043;-76
2022/05/02 06:52:11;;;;;;;20.60;17.02;;;11.10;99.90;;;11.11;100.00;100649.06;4991643;28;20056;-77
2022/05/02 06:54:56;;;;;;;19.13;16.52;;;11.20;99.90;;;11.19;100.00;100651.53;4961729;28;20051;-77
2022/05/02 06:58:01;;;;;;;19.08;17.08;;;11.20;99.90;;;11.32;100.00;100644.22;4988647;28;20047;-77
2022/05/02 07:00:37;;;;;;;19.85;17.58;;;11.30;99.90;;;11.40;100.00;100637.00;5000973;28;20043;-78
2022/05/02 07:03:11;;;;;;;18.35;15.48;;;11.40;99.90;;;11.45;100.00;100639.53;4992047;28;20058;-78
2022/05/02 07:06:00;;;;;;;17.67;15.88;;;11.50;99.90;;;11.55;100.00;100643.69;5009631;28;20046;-78
2022/05/02 07:08:29;;;;;;;17.42;15.63;;;11.60;99.90;;;11.53;100.00;100640.22;4989467;28;20057;-77
2022/05/02 07:11:04;;;;;;;16.33;14.52;;;11.60;99.90;;;11.57;100.00;100641.03;4973437;28;20102;-78
2022/05/02 07:13:51;;;;;;;17.35;15.52;;;11.60;99.90;;;11.63;100.00;100639.09;4977371;28;20058;-78
2022/05/02 07:16:23;;;;;;;17.85;16.00;;;12.30;99.90;;;11.68;100.00;100627.56;4992866;28;20058;-77
2022/05/02 07:19:54;;;;;;;17.33;15.50;;;11.80;99.90;;;11.74;100.00;100643.22;4992534;28;20538;-77
2022/05/02 07:22:36;;;;;;;17.67;15.00;;;11.80;99.90;;;11.77;100.00;100630.84;4973255;28;20643;-77
2022/05/02 07:25:13;;;;;;;17.60;15.75;;;11.80;99.90;;;11.83;100.00;100636.88;4992898;28;20054;-78
2022/05/02 07:28:18;;;;;;;21.45;15.95;;;11.90;99.90;;;11.92;100.00;100636.66;4993285;28;20054;-77
2022/05/02 07:30:47;;;;;;;18.00;15.48;;;11.90;99.90;;;12.00;100.00;100645.22;5007782;28;20050;-78
2022/05/02 07:33:16;;;;;;;16.38;14.68;;;12.00;99.90;;;12.07;100.00;100634.56;4991600;28;20046;-76
2022/05/02 07:35:45;;;;;;;17.42;15.38;;;12.10;99.90;;;12.07;100.00;100635.41;4991643;28;20045;-77
2022/05/02 07:38:15;;;;;;;15.85;13.90;;;12.20;99.90;;;12.25;100.00;100636.69;4991803;28;20049;-77
2022/05/02 07:41:22;;;;;;;16.40;14.60;;;12.20;99.90;;;12.36;100.00;100631.13;5007462;28;20042;-78
2022/05/02 07:43:35;;;;;;;15.52;14.00;;;12.30;99.90;;;12.51;100.00;100639.53;4991112;28;20056;-77
2022/05/02 07:46:06;;;;;;;16.10;14.40;;;12.40;99.90;;;12.65;100.00;100628.59;5007923;28;20050;-77
2022/05/02 07:48:38;;;;;;;15.50;13.90;;;12.50;99.90;;;12.78;100.00;100643.16;5008278;28;20113;-77
2022/05/02 07:51:09;;;;;;;16.33;13.65;;;12.60;99.90;;;12.88;100.00;100635.88;4990948;28;20105;-77
2022/05/02 07:53:42;;;;;;;18.25;14.75;;;12.70;99.90;;;13.00;100.00;100631.97;5007670;28;20065;-76
2022/05/02 07:56:12;;;;;;;18.65;14.02;;;12.90;99.90;;;13.07;100.00;100630.88;5008467;28;20049;-78
2022/05/02 07:58:41;;;;;;;17.05;14.07;;;13.10;99.90;;;13.21;100.00;100637.53;4992677;28;20043;-78
2022/05/02 08:01:09;;;;;;;13.90;12.60;;;13.10;99.90;;;13.27;100.00;100638.19;4991058;28;20430;-78
2022/05/02 08:03:36;;;;;;;13.68;12.25;;;13.20;99.90;;;13.44;100.00;100631.53;4992708;28;20043;-78
2022/05/02 08:06:42;;;;;;;15.88;14.27;;;13.30;99.90;;;13.56;100.00;100631.16;5007573;28;20049;-77
2022/05/02 08:09:36;;;;;;;15.27;13.68;;;13.60;99.90;;;13.71;100.00;100629.78;4992143;28;20055;-77
2022/05/02 08:12:31;;;;;;;12.40;11.07;;;13.60;99.90;;;13.86;100.00;100627.53;4990649;28;20056;-78
2022/05/02 08:15:24;;;;;;;16.20;12.43;;;13.70;99.90;;;13.97;100.00;100628.06;4991950;28;20061;-77
2022/05/02 08:18:22;;;;;;;14.38;12.93;;;13.80;99.90;;;13.92;100.00;100619.41;4994928;28;20050;-78
2022/05/02 08:21:26;;;;;;;14.85;12.20;;;14.00;99.90;;;14.09;100.00;100623.28;5006324;28;20513;-78
2022/05/02 08:27:59;;;;;;;15.80;12.85;;;14.20;99.90;;;14.27;100.00;100627.91;5009691;28;20125;-76
2022/05/02 08:30:31;;;;;;;13.57;12.00;;;14.20;99.90;;;14.37;100.00;100625.78;4956677;28;20146;-76
2022/05/02 08:33:07;;;;;;;15.48;12.35;;;14.30;99.90;;;14.56;100.00;100631.28;4956966;28;20479;-76
2022/05/02 08:36:27;;;;;;;13.77;12.35;;;14.50;99.90;;;14.67;100.00;100619.44;4983263;28;20668;-79
2022/05/02 08:39:04;;;;;;;14.77;12.32;;;14.50;99.90;;;14.67;100.00;100614.13;4963174;28;20060;-78
2022/05/02 08:41:32;;;;;;;12.82;11.38;;;14.70;99.90;;;14.72;100.00;100615.72;4965131;28;20058;-77
2022/05/02 08:44:34;;;;;;;14.07;12.20;;;14.80;99.90;;;14.88;100.00;100618.66;4993764;28;20053;-78
2022/05/02 08:47:31;;;;;;;14.57;12.40;;;14.80;99.90;;;15.05;100.00;100613.63;4999574;28;20053;-78
2022/05/02 08:50:48;;;;;;;14.25;12.75;;;15.00;99.90;;;15.18;100.00;100606.94;4999857;28;20046;-77
2022/05/02 08:54:01;;;;;;;12.82;11.63;;;15.10;99.90;;;15.54;100.00;100606.38;4963999;28;20077;-77
2022/05/02 08:57:08;;;;;;;12.48;11.20;;;15.20;99.90;;;15.80;100.00;100595.63;4982407;28;20808;-78
2022/05/02 09:00:09;;;;;;;15.13;11.38;;;15.50;99.60;;;15.77;100.00;100591.28;4995375;28;20051;-77
2022/05/02 09:03:27;;;;;;;16.55;12.15;;;15.70;99.10;;;15.66;100.00;100599.72;4993625;28;20124;-77
2022/05/02 09:06:29;;;;;;;14.02;12.63;;;15.70;98.90;;;15.74;100.00;100588.78;4993548;28;20104;-78
2022/05/02 09:09:14;;;;;;;11.77;10.68;;;15.70;98.60;;;15.82;100.00;100589.28;4985142;28;20054;-78
2022/05/02 09:12:12;;;;;;;11.60;10.40;;;15.80;98.50;;;15.88;100.00;100589.06;4992080;28;20066;-77
2022/05/02 09:15:19;;;;;;;11.98;10.57;;;15.80;97.90;;;16.00;100.00;100581.50;4995525;28;20042;-77
2022/05/02 09:18:19;;;;;;;12.52;10.48;;;15.90;98.00;;;16.08;100.00;100584.69;4998952;28;20062;-77
2022/05/02 09:20:53;;;;;;;12.55;10.57;;;16.00;97.60;;;16.16;100.00;100584.38;4997704;28;20062;-77
2022/05/02 09:23:29;;;;;;;10.40;9.40;;;16.00;97.60;;;16.18;100.00;100587.81;4982201;28;20058;-76
2022/05/02 09:27:04;;;;;;;13.05;10.38;;;16.10;96.90;;;16.14;100.00;100581.75;5015546;28;20070;-77
2022/05/02 09:30:03;;;;;;;11.13;9.90;;;16.20;96.70;;;16.08;100.00;100579.41;4972538;28;20058;-78
2022/05/02 09:33:14;;;;;;;11.85;10.55;;;16.10;96.80;;;16.20;100.00;100579.78;5013222;28;20080;-77
2022/05/02 09:36:01;;;;;;;15.85;11.05;;;16.10;96.70;;;16.25;100.00;100580.44;4996470;28;20074;-78
2022/05/02 09:38:36;;;;;;;11.15;10.05;;;16.10;96.70;;;16.41;100.00;100577.97;4977353;28;20050;-78
2022/05/02 09:41:42;;;;;;;14.40;10.48;;;16.20;96.90;;;16.49;100.00;100562.53;4976543;28;20047;-78
2022/05/02 09:52:01;;;;;;;13.27;9.63;;;16.50;96.70;;;16.96;100.00;100557.72;4978865;28;20047;-79
2022/05/02 09:58:34;;;;;;;12.13;9.50;;;16.80;96.30;;;17.08;100.00;100551.00;4990928;28;20121;-77
2022/05/02 10:01:27;;;;;;;13.48;9.88;;;16.90;96.10;;;17.09;100.00;100556.25;4991943;28;20121;-78
2022/05/02 10:04:30;;;;;;;10.07;9.00;;;16.90;95.70;;;17.38;100.00;100553.06;4975483;28;20137;-78
2022/05/02 10:07:10;;;;;;;10.43;9.32;;;17.00;95.90;;;17.48;100.00;100542.84;4948063;28;20054;-79
2022/05/02 10:10:05;;;;;;;12.68;10.35;;;17.20;95.90;;;17.51;100.00;100542.72;5007138;28;20065;-77
2022/05/02 10:12:47;;;;;;;;;;;17.20;95.50;;;17.49;99.55;100540.13;4993064;28;20118;-78
2022/05/02 10:15:54;;;;;;;11.45;10.35;;;17.30;95.20;;;17.52;100.00;100529.31;4989336;28;20002;-81
2022/05/02 10:18:47;;;;;;;12.15;9.70;;;17.40;95.00;;;17.62;100.00;100528.84;4974074;28;20500;-77
2022/05/02 10:21:25;;;;;;;13.70;9.23;;;17.40;95.10;;;17.76;98.02;100529.00;4972803;28;20039;-80
2022/05/02 10:24:28;;;;;;;11.70;9.50;;;17.50;94.70;;;17.84;100.00;100526.78;4955114;28;20086;-78
2022/05/02 10:27:08;;;;;;;10.25;8.93;;;17.60;94.90;;;17.95;100.00;100523.59;4952879;28;20057;-78
2022/05/02 10:30:01;;;;;;;11.95;9.38;;;17.70;95.00;;;18.16;94.71;100528.75;4977669;28;20069;-76
2022/05/02 10:32:31;;;;;;;12.27;9.23;;;17.80;94.70;;;18.18;92.77;100525.97;4978332;28;20077;-76
2022/05/02 10:35:03;;;;;;;10.52;8.90;;;17.90;94.30;;;18.32;95.81;100523.44;4994306;28;20797;-78
2022/05/02 10:37:37;;;;;;;10.52;9.18;;;18.00;94.60;;;18.35;95.85;100517.97;4993109;28;20415;-78
2022/05/02 10:40:15;;;;;;;9.32;8.23;;;18.10;94.40;;;18.66;84.21;100520.75;5005541;28;20042;-75
2022/05/02 10:42:52;;;;;;;10.93;9.43;;;18.30;93.50;;;18.83;85.94;100510.00;4993804;28;20060;-76
2022/05/02 10:45:19;;;;;;;10.65;8.90;;;18.50;93.90;;;18.87;82.37;100512.47;4979741;28;20046;-76
2022/05/02 10:47:55;;;;;;;10.85;9.05;;;18.60;93.40;;;19.04;85.99;100506.22;4996098;28;20041;-76
2022/05/02 10:50:39;;;;;;;11.40;8.55;;;18.70;93.60;;;19.31;83.56;100494.91;5010515;28;20049;-78
2022/05/02 10:53:08;;;;;;;11.05;9.90;;;18.90;93.30;;;19.53;83.15;100502.50;5009307;28;20091;-76
2022/05/02 10:55:50;;;;;;;12.63;9.63;;;19.10;93.50;;;19.66;87.38;100502.63;4997862;28;20054;-78
2022/05/02 10:58:18;;;;;;;12.77;10.25;;;19.30;93.70;;;19.60;83.71;100498.50;4995830;28;20050;-77
2022/05/02 11:01:10;;;;;;;11.38;9.93;;;19.40;93.20;;;19.81;84.60;100504.34;4964338;28;20045;-79
2022/05/02 11:03:51;;;;;;;14.82;11.05;;;19.50;93.30;;;19.83;82.10;100493.59;4980324;28;20054;-75
2022/05/02 11:06:37;;;;;;;11.40;10.00;;;19.60;93.00;;;19.90;79.23;100489.59;4986821;28;20057;-75
2022/05/02 11:09:13;;;;;;;12.32;9.52;;;19.70;92.50;;;20.05;79.80;100479.78;5012508;28;20106;-78